Time,TemperatureF,DewpointF,PressureIn,WindDirection,WindDirectionDegrees,WindSpeedMPH,WindSpeedGustMPH,Humidity,HourlyPrecipIn,Conditions,Clouds,dailyrainin,SoftwareType,DateUTC
2013-03-02 05:22:00,68.8,47.1,29.77,WNW,293,6.3,6.3,46,0.00,,,0.00,WUHU216HW,2013-03-02 10:22:00,
2013-03-02 05:27:00,70.0,42.4,29.77,NW,315,6.5,6.5,37,0.00,,,0.00,WUHU216HW,2013-03-02 10:27:00,
2013-03-02 05:32:00,67.1,39.1,29.76,WNW,293,8.1,8.9,36,0.00,,,0.00,WUHU216HW,2013-03-02 10:32:00,
2013-03-02 05:37:00,66.1,45.3,29.76,NW,315,8.5,8.9,47,0.00,,,0.00,WUHU216HW,2013-03-02 10:37:00,
2013-03-02 05:42:00,39.8,24.0,29.76,NW,315,6.7,8.7,53,0.00,,,0.00,WUHU216HW,2013-03-02 10:42:00,
2013-03-02 05:47:00,38.5,24.1,29.76,West,270,6.9,8.1,56,0.00,,,0.00,WUHU216HW,2013-03-02 10:47:00,
2013-03-02 05:52:00,37.4,23.9,29.75,WNW,293,7.2,9.4,58,0.00,,,0.00,WUHU216HW,2013-03-02 10:52:00,
2013-03-02 05:57:00,36.5,24.0,29.75,NW,315,6.3,9.4,60,0.00,,,0.00,WUHU216HW,2013-03-02 10:57:00,
2013-03-02 06:02:00,36.0,23.6,29.75,NW,315,6.0,7.4,60,0.00,,,0.00,WUHU216HW,2013-03-02 11:02:00,
2013-03-02 06:07:00,35.6,23.6,29.76,WNW,293,5.4,6.9,61,0.00,,,0.00,WUHU216HW,2013-03-02 11:07:00,
2013-03-02 06:12:00,35.1,23.4,29.76,NW,315,6.9,6.9,62,0.00,,,0.00,WUHU216HW,2013-03-02 11:12:00,
2013-03-02 06:17:00,34.6,23.2,29.76,NW,315,6.9,7.4,63,0.00,,,0.00,WUHU216HW,2013-03-02 11:17:00,
2013-03-02 06:22:00,34.2,22.9,29.76,West,270,6.0,7.4,63,0.00,,,0.00,WUHU216HW,2013-03-02 11:22:00,
2013-03-02 06:27:00,33.8,22.9,29.76,NW,315,5.8,6.9,64,0.00,,,0.00,WUHU216HW,2013-03-02 11:27:00,
2013-03-02 06:32:00,33.5,22.9,29.76,NW,315,4.7,6.3,65,0.00,,,0.00,WUHU216HW,2013-03-02 11:32:00,
2013-03-02 06:37:00,33.5,22.9,29.76,NW,315,6.0,6.3,65,0.00,,,0.00,WUHU216HW,2013-03-02 11:37:00,
2013-03-02 06:42:00,33.1,22.6,29.76,NW,315,6.3,6.3,65,0.00,,,0.00,WUHU216HW,2013-03-02 11:42:00,
2013-03-02 06:47:00,33.1,22.6,29.76,WNW,293,5.8,6.9,65,0.00,,,0.00,WUHU216HW,2013-03-02 11:47:00,
2013-03-02 06:52:00,32.8,22.6,29.76,NW,315,6.3,6.9,66,0.00,,,0.00,WUHU216HW,2013-03-02 11:52:00,
2013-03-02 06:57:00,32.8,23.0,29.76,West,270,6.9,6.9,67,0.00,,,0.00,WUHU216HW,2013-03-02 11:57:00,
2013-03-02 07:02:00,32.6,23.1,29.76,WNW,293,7.8,8.3,68,0.00,,,0.00,WUHU216HW,2013-03-02 12:02:00,
2013-03-02 07:07:00,32.4,23.1,29.76,WNW,293,6.9,8.3,68,0.00,,,0.00,WUHU216HW,2013-03-02 12:07:00,
2013-03-02 07:12:00,32.2,23.2,29.77,NW,315,6.5,7.6,69,0.00,,,0.00,WUHU216HW,2013-03-02 12:12:00,
2013-03-02 07:17:00,32.2,23.2,29.77,WNW,293,7.4,7.4,69,0.00,,,0.00,WUHU216HW,2013-03-02 12:17:00,
2013-03-02 07:22:00,32.2,23.6,29.77,WNW,293,7.6,7.8,70,0.00,,,0.00,WUHU216HW,2013-03-02 12:22:00,
2013-03-02 07:27:00,32.0,23.4,29.77,WNW,293,6.0,7.8,70,0.00,,,0.00,WUHU216HW,2013-03-02 12:27:00,
2013-03-02 07:32:00,32.0,23.0,29.77,WSW,248,6.3,7.4,69,0.00,,,0.00,WUHU216HW,2013-03-02 12:32:00,
2013-03-02 07:37:00,32.0,23.0,29.77,NW,315,7.6,7.6,69,0.00,,,0.00,WUHU216HW,2013-03-02 12:37:00,
2013-03-02 07:42:00,32.0,23.4,29.77,WNW,293,8.5,9.2,70,0.00,,,0.00,WUHU216HW,2013-03-02 12:42:00,
2013-03-02 07:47:00,32.0,23.4,29.77,WNW,293,8.7,9.8,70,0.00,,,0.00,WUHU216HW,2013-03-02 12:47:00,
2013-03-02 07:52:00,32.0,23.4,29.77,WNW,293,11.6,11.6,70,0.00,,,0.00,WUHU216HW,2013-03-02 12:52:00,
2013-03-02 07:57:00,32.0,23.4,29.77,WNW,293,9.8,12.1,70,0.00,,,0.00,WUHU216HW,2013-03-02 12:57:00,
2013-03-02 08:02:00,32.0,23.4,29.77,WNW,293,11.4,12.1,70,0.00,,,0.00,WUHU216HW,2013-03-02 13:02:00,
2013-03-02 08:07:00,32.0,23.4,29.77,West,270,8.9,11.4,70,0.00,,,0.00,WUHU216HW,2013-03-02 13:07:00,
2013-03-02 08:12:00,32.0,23.4,29.77,WNW,293,6.9,10.3,70,0.00,,,0.00,WUHU216HW,2013-03-02 13:12:00,
2013-03-02 08:17:00,32.2,23.6,29.77,NW,315,7.2,8.5,70,0.00,,,0.00,WUHU216HW,2013-03-02 13:17:00,
2013-03-02 08:22:00,32.2,23.6,29.77,NW,315,5.8,7.6,70,0.00,,,0.00,WUHU216HW,2013-03-02 13:22:00,
2013-03-02 08:27:00,32.4,23.8,29.77,NW,315,6.3,7.6,70,0.00,,,0.00,WUHU216HW,2013-03-02 13:27:00,
2013-03-02 08:32:00,32.4,23.8,29.77,NW,315,6.7,7.6,70,0.00,,,0.00,WUHU216HW,2013-03-02 13:32:00,
2013-03-02 08:37:00,32.4,23.4,29.77,WNW,293,4.7,6.7,69,0.00,,,0.00,WUHU216HW,2013-03-02 13:37:00,
2013-03-02 08:42:00,32.4,23.4,29.77,WNW,293,7.2,7.2,69,0.00,,,0.00,WUHU216HW,2013-03-02 13:42:00,
2013-03-02 08:47:00,32.4,23.1,29.77,NW,315,6.3,8.5,68,0.00,,,0.00,WUHU216HW,2013-03-02 13:47:00,
2013-03-02 08:52:00,32.4,23.4,29.77,WNW,293,5.8,8.5,69,0.00,,,0.00,WUHU216HW,2013-03-02 13:52:00,
2013-03-02 08:57:00,32.4,23.4,29.77,West,270,6.9,7.8,69,0.00,,,0.00,WUHU216HW,2013-03-02 13:57:00,
2013-03-02 09:02:00,32.4,23.1,29.77,NW,315,8.5,8.5,68,0.00,,,0.00,WUHU216HW,2013-03-02 14:02:00,
2013-03-02 09:07:00,32.4,23.1,29.77,NNW,338,4.0,8.5,68,0.00,,,0.00,WUHU216HW,2013-03-02 14:07:00,
2013-03-02 09:12:00,32.6,23.5,29.77,NW,315,8.1,8.1,69,0.00,,,0.00,WUHU216HW,2013-03-02 14:12:00,
2013-03-02 09:17:00,32.6,23.5,29.77,WNW,293,3.1,9.4,69,0.00,,,0.00,WUHU216HW,2013-03-02 14:17:00,
2013-03-02 09:22:00,32.8,23.7,29.77,NW,315,7.2,10.7,69,0.00,,,0.00,WUHU216HW,2013-03-02 14:22:00,
2013-03-02 09:27:00,32.8,23.3,29.77,NW,315,9.6,10.7,68,0.00,,,0.00,WUHU216HW,2013-03-02 14:27:00,
2013-03-02 09:32:00,32.6,23.9,29.77,NW,315,9.2,10.7,70,0.00,,,0.00,WUHU216HW,2013-03-02 14:32:00,
2013-03-02 09:37:00,32.8,23.7,29.77,NW,315,8.7,11.6,69,0.00,,,0.00,WUHU216HW,2013-03-02 14:37:00,
2013-03-02 09:42:00,32.8,24.0,29.77,WNW,293,4.7,11.6,70,0.00,,,0.00,WUHU216HW,2013-03-02 14:42:00,
2013-03-02 09:47:00,32.8,24.0,29.77,NW,315,8.5,8.5,70,0.00,,,0.00,WUHU216HW,2013-03-02 14:47:00,
2013-03-02 09:52:00,32.8,23.7,29.77,NW,315,9.6,9.6,69,0.00,,,0.00,WUHU216HW,2013-03-02 14:52:00,
2013-03-02 09:57:00,32.6,23.5,29.77,North,0,1.3,9.6,69,0.00,,,0.00,WUHU216HW,2013-03-02 14:57:00,
2013-03-02 10:02:00,32.8,24.0,29.77,NE,45,2.5,8.5,70,0.00,,,0.00,WUHU216HW,2013-03-02 15:02:00,
2013-03-02 10:07:00,32.9,24.2,29.77,WNW,293,9.2,9.2,70,0.00,,,0.00,WUHU216HW,2013-03-02 15:07:00,
2013-03-02 10:12:00,32.8,24.0,29.77,NW,315,8.7,9.2,70,0.00,,,0.00,WUHU216HW,2013-03-02 15:12:00,
2013-03-02 10:17:00,32.8,24.0,29.77,NW,315,7.2,8.7,70,0.00,,,0.00,WUHU216HW,2013-03-02 15:17:00,
2013-03-02 10:22:00,32.6,24.2,29.77,WNW,293,7.2,9.8,71,0.00,,,0.00,WUHU216HW,2013-03-02 15:22:00,
2013-03-02 10:27:00,32.4,24.0,29.77,NW,315,6.5,10.3,71,0.00,,,0.00,WUHU216HW,2013-03-02 15:27:00,
2013-03-02 10:32:00,32.8,24.0,29.77,NW,315,6.3,10.3,70,0.00,,,0.00,WUHU216HW,2013-03-02 15:32:00,
2013-03-02 10:37:00,32.8,24.0,29.77,NW,315,7.2,7.8,70,0.00,,,0.00,WUHU216HW,2013-03-02 15:37:00,
2013-03-02 10:42:00,32.9,24.2,29.77,NNW,338,2.5,9.2,70,0.00,,,0.00,WUHU216HW,2013-03-02 15:42:00,
2013-03-02 10:47:00,32.9,23.9,29.77,WNW,293,1.8,9.2,69,0.00,,,0.00,WUHU216HW,2013-03-02 15:47:00,
2013-03-02 10:52:00,33.5,24.7,29.77,NW,315,5.6,6.3,70,0.00,,,0.00,WUHU216HW,2013-03-02 15:52:00,
2013-03-02 10:57:00,33.8,24.7,29.77,NW,315,6.0,6.5,69,0.00,,,0.00,WUHU216HW,2013-03-02 15:57:00,
2013-03-02 11:02:00,33.8,24.3,29.77,NW,315,3.6,6.5,68,0.00,,,0.00,WUHU216HW,2013-03-02 16:02:00,
2013-03-02 11:07:00,33.8,24.3,29.77,NE,45,4.0,6.9,68,0.00,,,0.00,WUHU216HW,2013-03-02 16:07:00,
2013-03-02 11:12:00,33.8,24.3,29.77,West,270,4.7,6.9,68,0.00,,,0.00,WUHU216HW,2013-03-02 16:12:00,
2013-03-02 11:17:00,34.0,24.5,29.77,NW,315,1.8,4.7,68,0.00,,,0.00,WUHU216HW,2013-03-02 16:17:00,
2013-03-02 11:22:00,34.0,24.1,29.77,North,0,4.9,8.7,67,0.00,,,0.00,WUHU216HW,2013-03-02 16:22:00,
2013-03-02 11:27:00,34.2,24.3,29.77,NNE,23,3.8,8.7,67,0.00,,,0.00,WUHU216HW,2013-03-02 16:27:00,
2013-03-02 11:32:00,34.2,24.3,29.77,NW,315,2.5,5.6,67,0.00,,,0.00,WUHU216HW,2013-03-02 16:32:00,
2013-03-02 11:37:00,34.2,24.3,29.77,ESE,113,1.6,4.7,67,0.00,,,0.00,WUHU216HW,2013-03-02 16:37:00,
2013-03-02 11:42:00,34.2,24.3,29.77,WNW,293,2.0,3.4,67,0.00,,,0.00,WUHU216HW,2013-03-02 16:42:00,
2013-03-02 11:47:00,34.4,24.5,29.76,North,0,5.4,5.4,67,0.00,,,0.00,WUHU216HW,2013-03-02 16:47:00,
2013-03-02 11:52:00,34.6,24.7,29.77,WNW,293,2.2,5.4,67,0.00,,,0.00,WUHU216HW,2013-03-02 16:52:00,
2013-03-02 11:57:00,34.4,24.1,29.77,NW,315,2.9,4.7,66,0.00,,,0.00,WUHU216HW,2013-03-02 16:57:00,
2013-03-02 12:02:00,34.4,24.1,29.77,North,0,4.9,4.9,66,0.00,,,0.00,WUHU216HW,2013-03-02 17:02:00,
2013-03-02 12:07:00,34.4,24.1,29.76,North,0,2.5,4.9,66,0.00,,,0.00,WUHU216HW,2013-03-02 17:07:00,
2013-03-02 12:12:00,34.4,24.1,29.76,WSW,248,2.0,4.0,66,0.00,,,0.00,WUHU216HW,2013-03-02 17:12:00,
2013-03-02 12:17:00,34.7,24.5,29.76,WSW,248,4.5,4.5,66,0.00,,,0.00,WUHU216HW,2013-03-02 17:17:00,
2013-03-02 12:22:00,34.7,24.5,29.76,NNE,23,3.6,4.5,66,0.00,,,0.00,WUHU216HW,2013-03-02 17:22:00,
2013-03-02 12:27:00,34.9,24.7,29.76,North,0,5.4,5.4,66,0.00,,,0.00,WUHU216HW,2013-03-02 17:27:00,
2013-03-02 12:32:00,34.9,24.3,29.75,NW,315,1.1,5.4,65,0.00,,,0.00,WUHU216HW,2013-03-02 17:32:00,
2013-03-02 12:37:00,34.9,24.3,29.76,ENE,68,4.0,4.7,65,0.00,,,0.00,WUHU216HW,2013-03-02 17:37:00,
2013-03-02 12:42:00,34.9,24.3,29.75,North,0,4.7,6.3,65,0.00,,,0.00,WUHU216HW,2013-03-02 17:42:00,
2013-03-02 12:47:00,34.9,24.3,29.75,NNW,338,4.0,6.3,65,0.00,,,0.00,WUHU216HW,2013-03-02 17:47:00,
2013-03-02 12:52:00,35.1,24.5,29.75,NNE,23,3.6,5.8,65,0.00,,,0.00,WUHU216HW,2013-03-02 17:52:00,
2013-03-02 12:57:00,35.1,24.5,29.75,NNE,23,3.6,3.6,65,0.00,,,0.00,WUHU216HW,2013-03-02 17:57:00,
2013-03-02 13:02:00,35.6,25.0,29.75,NNE,23,3.1,3.8,65,0.00,,,0.00,WUHU216HW,2013-03-02 18:02:00,
2013-03-02 13:07:00,35.8,24.9,29.75,North,0,2.7,4.0,64,0.00,,,0.00,WUHU216HW,2013-03-02 18:07:00,
2013-03-02 13:12:00,36.0,25.0,29.75,NE,45,1.1,4.0,64,0.00,,,0.00,WUHU216HW,2013-03-02 18:12:00,
2013-03-02 13:17:00,36.0,25.0,29.75,North,0,3.1,4.0,64,0.00,,,0.00,WUHU216HW,2013-03-02 18:17:00,
2013-03-02 13:22:00,36.0,25.0,29.75,NE,45,2.5,4.0,64,0.00,,,0.00,WUHU216HW,2013-03-02 18:22:00,
2013-03-02 13:27:00,35.8,24.9,29.75,North,0,6.3,6.3,64,0.00,,,0.00,WUHU216HW,2013-03-02 18:27:00,
2013-03-02 13:32:00,35.6,24.3,29.75,NNW,338,3.6,6.3,63,0.00,,,0.00,WUHU216HW,2013-03-02 18:32:00,
2013-03-02 13:37:00,35.8,24.5,29.75,NNE,23,3.4,5.6,63,0.00,,,0.00,WUHU216HW,2013-03-02 18:37:00,
2013-03-02 13:42:00,36.0,24.7,29.75,ESE,113,1.3,4.7,63,0.00,,,0.00,WUHU216HW,2013-03-02 18:42:00,
2013-03-02 13:47:00,36.0,24.7,29.74,NE,45,0.7,4.7,63,0.00,,,0.00,WUHU216HW,2013-03-02 18:47:00,
2013-03-02 13:52:00,36.2,24.9,29.74,North,0,0.4,3.8,63,0.00,,,0.00,WUHU216HW,2013-03-02 18:52:00,
2013-03-02 13:57:00,36.4,24.9,29.74,NNW,338,3.8,3.8,63,0.00,,,0.00,WUHU216HW,2013-03-02 18:57:00,
2013-03-02 14:02:00,36.4,24.9,29.74,North,0,3.8,3.8,63,0.00,,,0.00,WUHU216HW,2013-03-02 19:02:00,
2013-03-02 14:07:00,36.4,24.6,29.74,NNW,338,1.6,3.8,62,0.00,,,0.00,WUHU216HW,2013-03-02 19:07:00,
2013-03-02 14:12:00,36.4,24.9,29.74,NNW,338,4.0,4.0,63,0.00,,,0.00,WUHU216HW,2013-03-02 19:12:00,
2013-03-02 14:17:00,36.4,24.6,29.74,NNE,23,2.2,4.3,62,0.00,,,0.00,WUHU216HW,2013-03-02 19:17:00,
2013-03-02 14:22:00,36.4,24.6,29.74,North,0,1.1,7.4,62,0.00,,,0.00,WUHU216HW,2013-03-02 19:22:00,
2013-03-02 14:27:00,36.4,24.6,29.74,North,0,3.4,7.4,62,0.00,,,0.00,WUHU216HW,2013-03-02 19:27:00,
2013-03-02 14:32:00,36.7,25.3,29.74,NNW,338,2.5,4.0,63,0.00,,,0.00,WUHU216HW,2013-03-02 19:32:00,
2013-03-02 14:37:00,36.7,24.9,29.74,NNE,23,2.9,4.5,62,0.00,,,0.00,WUHU216HW,2013-03-02 19:37:00,
2013-03-02 14:42:00,36.4,24.6,29.74,NNE,23,2.5,4.5,62,0.00,,,0.00,WUHU216HW,2013-03-02 19:42:00,
2013-03-02 14:47:00,36.4,24.6,29.74,East,90,2.7,4.7,62,0.00,,,0.00,WUHU216HW,2013-03-02 19:47:00,
2013-03-02 14:52:00,36.2,24.9,29.74,ENE,68,1.6,4.7,63,0.00,,,0.00,WUHU216HW,2013-03-02 19:52:00,
2013-03-02 14:57:00,35.8,24.1,29.74,NE,45,3.4,4.7,62,0.00,,,0.00,WUHU216HW,2013-03-02 19:57:00,
2013-03-02 15:02:00,35.6,23.9,29.74,NNE,23,2.7,4.7,62,0.00,,,0.00,WUHU216HW,2013-03-02 20:02:00,
2013-03-02 15:07:00,35.6,24.3,29.74,ENE,68,1.1,4.7,63,0.00,,,0.00,WUHU216HW,2013-03-02 20:07:00,
2013-03-02 15:12:00,35.5,24.1,29.74,NNW,338,4.0,4.9,63,0.00,,,0.00,WUHU216HW,2013-03-02 20:12:00,
2013-03-02 15:17:00,35.5,24.5,29.74,East,90,0.9,4.9,64,0.00,,,0.00,WUHU216HW,2013-03-02 20:17:00,
2013-03-02 15:22:00,35.1,24.1,29.74,NE,45,2.5,4.9,64,0.00,,,0.00,WUHU216HW,2013-03-02 20:22:00,
2013-03-02 15:27:00,34.9,23.9,29.74,East,90,1.6,4.9,64,0.00,,,0.00,WUHU216HW,2013-03-02 20:27:00,
2013-03-02 15:32:00,34.9,23.9,29.74,NNW,338,3.4,3.4,64,0.00,,,0.00,WUHU216HW,2013-03-02 20:32:00,
2013-03-02 15:37:00,34.9,24.3,29.74,NNW,338,1.6,3.4,65,0.00,,,0.00,WUHU216HW,2013-03-02 20:37:00,
2013-03-02 15:42:00,34.7,23.8,29.74,ENE,68,1.6,4.0,64,0.00,,,0.00,WUHU216HW,2013-03-02 20:42:00,
2013-03-02 15:47:00,34.6,23.9,29.74,North,0,2.2,4.7,65,0.00,,,0.00,WUHU216HW,2013-03-02 20:47:00,
2013-03-02 15:52:00,34.4,24.1,29.75,East,90,1.6,4.7,66,0.00,,,0.00,WUHU216HW,2013-03-02 20:52:00,
2013-03-02 15:57:00,34.2,23.9,29.74,NE,45,3.4,4.7,66,0.00,,,0.00,WUHU216HW,2013-03-02 20:57:00,
2013-03-02 16:02:00,34.0,24.1,29.75,East,90,1.8,3.4,67,0.00,,,0.00,WUHU216HW,2013-03-02 21:02:00,
2013-03-02 16:07:00,34.0,24.1,29.75,East,90,1.3,3.1,67,0.00,,,0.00,WUHU216HW,2013-03-02 21:07:00,
2013-03-02 16:12:00,33.8,24.7,29.75,NNE,23,2.9,3.1,69,0.00,,,0.00,WUHU216HW,2013-03-02 21:12:00,
2013-03-02 16:17:00,33.5,24.3,29.75,North,0,0.7,2.9,69,0.00,,,0.00,WUHU216HW,2013-03-02 21:17:00,
2013-03-02 16:22:00,33.3,24.2,29.75,NNE,23,1.3,3.1,69,0.00,,,0.00,WUHU216HW,2013-03-02 21:22:00,
2013-03-02 16:27:00,33.1,24.0,29.76,North,0,2.2,3.1,69,0.00,,,0.00,WUHU216HW,2013-03-02 21:27:00,
2013-03-02 16:32:00,32.9,24.2,29.76,NW,315,1.8,2.2,70,0.00,,,0.00,WUHU216HW,2013-03-02 21:32:00,
2013-03-02 16:37:00,32.9,24.2,29.76,NW,315,1.8,1.8,70,0.00,,,0.00,WUHU216HW,2013-03-02 21:37:00,
2013-03-02 16:58:00,31.1,23.5,29.76,NW,315,2.9,2.9,73,0.00,,,0.00,WUHU216HW,2013-03-02 21:58:00,
2013-03-02 17:03:00,30.6,23.2,29.76,WNW,293,2.5,7.4,74,0.00,,,0.00,WUHU216HW,2013-03-02 22:03:00,
2013-03-02 17:08:00,30.4,23.4,29.76,WNW,293,3.4,7.4,75,0.00,,,0.00,WUHU216HW,2013-03-02 22:08:00,
2013-03-02 17:13:00,30.2,23.6,29.77,WNW,293,2.9,6.7,76,0.00,,,0.00,WUHU216HW,2013-03-02 22:13:00,
2013-03-02 17:17:00,30.1,23.4,29.77,NNW,338,2.7,5.4,76,0.00,,,0.00,WUHU216HW,2013-03-02 22:17:00,
2013-03-02 17:22:00,30.1,23.4,29.77,NW,315,3.4,5.4,76,0.00,,,0.00,WUHU216HW,2013-03-02 22:22:00,
2013-03-02 17:28:00,30.1,23.7,29.77,NNW,338,2.7,3.4,77,0.00,,,0.00,WUHU216HW,2013-03-02 22:28:00,
2013-03-02 17:33:00,30.1,23.7,29.77,West,270,3.6,3.6,77,0.00,,,0.00,WUHU216HW,2013-03-02 22:33:00,
2013-03-02 17:38:00,29.9,23.5,29.77,NNW,338,2.7,3.6,77,0.00,,,0.00,WUHU216HW,2013-03-02 22:38:00,
2013-03-02 17:43:00,29.9,23.2,29.77,NNW,338,0.7,2.9,76,0.00,,,0.00,WUHU216HW,2013-03-02 22:43:00,
2013-03-02 17:48:00,29.7,23.1,29.77,NW,315,1.3,4.0,76,0.00,,,0.00,WUHU216HW,2013-03-02 22:48:00,
2013-03-02 17:53:00,29.7,23.3,29.78,West,270,2.5,4.0,77,0.00,,,0.00,WUHU216HW,2013-03-02 22:53:00,
2013-03-02 17:58:00,29.5,23.1,29.78,NNW,338,3.6,3.6,77,0.00,,,0.00,WUHU216HW,2013-03-02 22:58:00,
2013-03-02 18:03:00,29.5,23.1,29.78,NW,315,4.0,4.0,77,0.00,,,0.00,WUHU216HW,2013-03-02 23:03:00,
2013-03-02 18:08:00,29.5,23.1,29.78,NNW,338,1.8,4.3,77,0.00,,,0.00,WUHU216HW,2013-03-02 23:08:00,
2013-03-02 18:13:00,29.3,23.0,29.78,NNW,338,2.5,4.3,77,0.00,,,0.00,WUHU216HW,2013-03-02 23:13:00,
2013-03-02 18:18:00,29.3,23.0,29.78,NNW,338,2.9,3.6,77,0.00,,,0.00,WUHU216HW,2013-03-02 23:18:00,
2013-03-02 18:23:00,29.3,23.3,29.78,NNW,338,1.8,3.4,78,0.00,,,0.00,WUHU216HW,2013-03-02 23:23:00,
2013-03-02 18:28:00,29.3,23.3,29.78,WNW,293,4.7,4.7,78,0.00,,,0.00,WUHU216HW,2013-03-02 23:28:00,
2013-03-02 18:33:00,29.2,23.1,29.78,NW,315,5.6,5.6,78,0.00,,,0.00,WUHU216HW,2013-03-02 23:33:00,
2013-03-02 18:38:00,29.2,23.5,29.78,North,0,2.2,5.6,79,0.00,,,0.00,WUHU216HW,2013-03-02 23:38:00,
2013-03-02 18:43:00,29.2,23.5,29.79,NE,45,4.0,4.7,79,0.00,,,0.00,WUHU216HW,2013-03-02 23:43:00,
2013-03-02 18:48:00,29.2,23.5,29.79,NNW,338,1.1,4.0,79,0.00,,,0.00,WUHU216HW,2013-03-02 23:48:00,
2013-03-02 18:53:00,29.2,23.5,29.79,NNE,23,3.4,3.4,79,0.00,,,0.00,WUHU216HW,2013-03-02 23:53:00,
2013-03-02 18:58:00,29.2,23.5,29.79,WNW,293,1.8,5.4,79,0.00,,,0.00,WUHU216HW,2013-03-02 23:58:00,
2013-03-02 19:03:00,29.2,23.5,29.79,NNW,338,0.4,5.4,79,0.00,,,0.00,WUHU216HW,2013-03-03 00:03:00,
2013-03-02 19:08:00,29.0,23.3,29.79,NNE,23,2.5,4.0,79,0.00,,,0.00,WUHU216HW,2013-03-03 00:08:00,
2013-03-02 19:13:00,29.2,23.1,29.79,NNE,23,0.7,4.0,78,0.00,,,0.00,WUHU216HW,2013-03-03 00:13:00,
2013-03-02 19:18:00,29.0,23.3,29.79,NNW,338,0.4,3.4,79,0.00,,,0.00,WUHU216HW,2013-03-03 00:18:00,
2013-03-02 19:23:00,29.0,23.3,29.79,NNE,23,2.2,2.9,79,0.00,,,0.00,WUHU216HW,2013-03-03 00:23:00,
2013-03-02 19:28:00,28.8,23.1,29.79,NNW,338,3.4,3.8,79,0.00,,,0.00,WUHU216HW,2013-03-03 00:28:00,
2013-03-02 19:33:00,28.8,23.1,29.79,WNW,293,3.6,5.4,79,0.00,,,0.00,WUHU216HW,2013-03-03 00:33:00,
2013-03-02 19:38:00,28.6,23.0,29.78,North,0,2.0,5.4,79,0.00,,,0.00,WUHU216HW,2013-03-03 00:38:00,
2013-03-02 19:43:00,28.4,22.8,29.79,North,0,2.9,4.3,79,0.00,,,0.00,WUHU216HW,2013-03-03 00:43:00,
2013-03-02 19:48:00,28.3,22.6,29.79,NNE,23,1.1,4.3,79,0.00,,,0.00,WUHU216HW,2013-03-03 00:48:00,
2013-03-02 19:53:00,28.3,22.6,29.79,NNE,23,2.7,4.0,79,0.00,,,0.00,WUHU216HW,2013-03-03 00:53:00,
2013-03-02 19:58:00,28.1,22.4,29.79,NW,315,2.5,4.5,79,0.00,,,0.00,WUHU216HW,2013-03-03 00:58:00,
2013-03-02 20:03:00,28.1,22.7,29.79,NNE,23,4.5,4.7,80,0.00,,,0.00,WUHU216HW,2013-03-03 01:03:00,
2013-03-02 20:08:00,28.1,22.7,29.79,NNW,338,0.4,4.7,80,0.00,,,0.00,WUHU216HW,2013-03-03 01:08:00,
2013-03-02 20:13:00,28.1,22.7,29.79,NNW,338,0.4,0.4,80,0.00,,,0.00,WUHU216HW,2013-03-03 01:13:00,
2013-03-02 20:33:00,27.5,21.9,29.79,NNW,338,1.6,1.6,79,0.00,,,0.00,WUHU216HW,2013-03-03 01:33:00,
2013-03-02 20:38:00,27.5,22.1,29.79,North,0,1.6,2.2,80,0.00,,,0.00,WUHU216HW,2013-03-03 01:38:00,
2013-03-02 20:43:00,27.5,22.1,29.79,North,0,0.2,2.2,80,0.00,,,0.00,WUHU216HW,2013-03-03 01:43:00,
2013-03-02 20:48:00,27.4,22.0,29.79,NNW,338,1.6,2.0,80,0.00,,,0.00,WUHU216HW,2013-03-03 01:48:00,
2013-03-02 20:53:00,27.4,21.7,29.79,NNE,23,1.1,2.0,79,0.00,,,0.00,WUHU216HW,2013-03-03 01:53:00,
2013-03-02 20:58:00,27.2,21.8,29.79,North,0,1.1,2.5,80,0.00,,,0.00,WUHU216HW,2013-03-03 01:58:00,
2013-03-02 21:03:00,27.0,21.3,29.79,NE,45,0.7,2.5,79,0.00,,,0.00,WUHU216HW,2013-03-03 02:03:00,
2013-03-02 21:08:00,27.0,21.6,29.79,North,0,1.8,1.8,80,0.00,,,0.00,WUHU216HW,2013-03-03 02:08:00,
2013-03-02 21:13:00,27.0,21.6,29.79,NW,315,1.1,1.8,80,0.00,,,0.00,WUHU216HW,2013-03-03 02:13:00,
2013-03-02 21:18:00,27.0,21.6,29.79,NE,45,1.3,2.0,80,0.00,,,0.00,WUHU216HW,2013-03-03 02:18:00,
2013-03-02 21:23:00,27.0,21.6,29.79,ENE,68,0.0,2.0,80,0.00,,,0.00,WUHU216HW,2013-03-03 02:23:00,
2013-03-02 21:28:00,27.0,21.6,29.79,North,0,0.4,2.7,80,0.00,,,0.00,WUHU216HW,2013-03-03 02:28:00,
2013-03-02 21:33:00,26.8,21.4,29.79,NNE,23,1.3,2.7,80,0.00,,,0.00,WUHU216HW,2013-03-03 02:33:00,
2013-03-02 21:38:00,26.8,21.4,29.79,NNE,23,1.6,1.6,80,0.00,,,0.00,WUHU216HW,2013-03-03 02:38:00,
2013-03-02 21:43:00,26.8,21.4,29.79,NNE,23,1.3,1.6,80,0.00,,,0.00,WUHU216HW,2013-03-03 02:43:00,
2013-03-02 21:48:00,26.8,21.4,29.79,NW,315,0.4,1.3,80,0.00,,,0.00,WUHU216HW,2013-03-03 02:48:00,
2013-03-02 21:53:00,26.6,21.2,29.79,NNW,338,1.1,1.1,80,0.00,,,0.00,WUHU216HW,2013-03-03 02:53:00,
2013-03-02 21:58:00,26.6,21.2,29.79,East,90,1.3,2.0,80,0.00,,,0.00,WUHU216HW,2013-03-03 02:58:00,
2013-03-02 22:03:00,26.6,21.2,29.79,North,0,0.4,2.0,80,0.00,,,0.00,WUHU216HW,2013-03-03 03:03:00,
2013-03-02 22:08:00,26.6,21.2,29.79,North,0,1.8,1.8,80,0.00,,,0.00,WUHU216HW,2013-03-03 03:08:00,
2013-03-02 22:13:00,26.6,21.2,29.79,NE,45,1.3,1.8,80,0.00,,,0.00,WUHU216HW,2013-03-03 03:13:00,
2013-03-02 22:18:00,26.5,21.3,29.78,NNE,23,0.4,2.0,81,0.00,,,0.00,WUHU216HW,2013-03-03 03:18:00,
2013-03-02 22:23:00,26.5,21.1,29.78,North,0,0.7,2.0,80,0.00,,,0.00,WUHU216HW,2013-03-03 03:23:00,
2013-03-02 22:28:00,26.5,21.1,29.78,NNE,23,1.6,1.6,80,0.00,,,0.00,WUHU216HW,2013-03-03 03:28:00,
2013-03-02 22:33:00,26.5,21.1,29.78,North,0,1.3,1.6,80,0.00,,,0.00,WUHU216HW,2013-03-03 03:33:00,
2013-03-02 22:38:00,26.3,20.9,29.78,NNW,338,0.4,1.3,80,0.00,,,0.00,WUHU216HW,2013-03-03 03:38:00,
2013-03-02 22:43:00,26.3,20.9,29.78,North,0,0.2,1.3,80,0.00,,,0.00,WUHU216HW,2013-03-03 03:43:00,
2013-03-02 22:48:00,26.3,20.9,29.78,NNW,338,1.1,1.1,80,0.00,,,0.00,WUHU216HW,2013-03-03 03:48:00,
2013-03-02 22:53:00,26.3,20.9,29.78,NNE,23,0.2,1.1,80,0.00,,,0.00,WUHU216HW,2013-03-03 03:53:00,
2013-03-02 22:58:00,26.3,20.9,29.78,NE,45,0.9,1.6,80,0.00,,,0.00,WUHU216HW,2013-03-03 03:58:00,
2013-03-02 23:03:00,26.3,20.9,29.78,NE,45,0.7,1.6,80,0.00,,,0.00,WUHU216HW,2013-03-03 04:03:00,
2013-03-02 23:08:00,26.3,21.3,29.78,NNW,338,0.4,1.6,81,0.00,,,0.00,WUHU216HW,2013-03-03 04:08:00,
2013-03-02 23:13:00,26.3,21.3,29.77,NNE,23,0.9,1.3,81,0.00,,,0.00,WUHU216HW,2013-03-03 04:13:00,
2013-03-02 23:18:00,26.3,21.3,29.77,North,0,2.2,2.2,81,0.00,,,0.00,WUHU216HW,2013-03-03 04:18:00,
2013-03-02 23:23:00,26.1,21.1,29.77,NNW,338,0.2,2.2,81,0.00,,,0.00,WUHU216HW,2013-03-03 04:23:00,
2013-03-02 23:28:00,26.3,21.3,29.77,NW,315,0.2,2.5,81,0.00,,,0.00,WUHU216HW,2013-03-03 04:28:00,
2013-03-02 23:33:00,26.1,20.8,29.77,NW,315,0.2,2.5,80,0.00,,,0.00,WUHU216HW,2013-03-03 04:33:00,
2013-03-02 23:38:00,26.1,21.1,29.77,SSE,158,0.0,1.1,81,0.00,,,0.00,WUHU216HW,2013-03-03 04:38:00,
2013-03-02 23:43:00,26.1,20.8,29.77,NE,45,1.1,1.1,80,0.00,,,0.00,WUHU216HW,2013-03-03 04:43:00,
2013-03-02 23:48:00,25.9,20.9,29.77,NNW,338,0.9,1.8,81,0.00,,,0.00,WUHU216HW,2013-03-03 04:48:00,
2013-03-02 23:53:00,25.9,20.9,29.77,ENE,68,0.9,1.8,81,0.00,,,0.00,WUHU216HW,2013-03-03 04:53:00,
2013-03-02 23:58:00,25.7,20.4,29.77,ESE,113,0.4,1.1,80,0.00,,,0.00,WUHU216HW,2013-03-03 04:58:00,